createdAt,value
2017-10-28T00:00:41.878Z,101633.91
2017-10-28T00:03:10.323Z,101633.95
2017-10-28T00:05:39.563Z,101630.04
2017-10-28T00:08:08.061Z,101629.17
2017-10-28T00:10:36.522Z,101624.91
2017-10-28T00:13:05.020Z,101617.16
2017-10-28T00:15:33.482Z,101609.81
2017-10-28T00:18:01.979Z,101600.81
2017-10-28T00:20:30.468Z,101592.63
2017-10-28T00:22:58.908Z,101586.57
2017-10-28T00:25:27.366Z,101585.71
2017-10-28T00:27:55.908Z,101586.11
2017-10-28T00:30:29.994Z,101573.63
2017-10-28T00:33:04.687Z,101573.19
2017-10-28T00:35:38.730Z,101581.77
2017-10-28T00:38:07.954Z,101573.16
2017-10-28T00:40:36.394Z,101579.18
2017-10-28T00:43:05.635Z,101564.94
2017-10-28T00:45:34.127Z,101566.19
2017-10-28T00:48:02.612Z,101567.09
2017-10-28T00:50:31.053Z,101562.36
2017-10-28T00:53:00.396Z,101561.06
2017-10-28T00:55:28.877Z,101560.20
2017-10-28T00:57:57.340Z,101555.04
2017-10-28T01:00:25.778Z,101555.08
2017-10-28T01:02:54.354Z,101540.56
2017-10-28T01:05:22.903Z,101537.59
2017-10-28T01:07:51.387Z,101537.28
2017-10-28T01:10:19.825Z,101532.58
2017-10-28T01:12:49.035Z,101526.59
2017-10-28T01:15:18.258Z,101524.41
2017-10-28T01:17:46.690Z,101510.68
2017-10-28T01:20:15.150Z,101499.42
2017-10-28T01:22:43.618Z,101498.09
2017-10-28T01:25:12.098Z,101495.47
2017-10-28T01:27:40.575Z,101503.17
2017-10-28T01:30:09.164Z,101499.72
2017-10-28T01:32:37.600Z,101501.84
2017-10-28T01:35:06.825Z,101492.38
2017-10-28T01:37:35.272Z,101485.09
2017-10-28T01:40:03.734Z,101480.79
2017-10-28T01:42:32.170Z,101475.20
2017-10-28T01:45:00.661Z,101465.73
2017-10-28T01:47:29.141Z,101461.01
2017-10-28T01:49:57.625Z,101451.07
2017-10-28T01:52:26.081Z,101448.96
2017-10-28T01:54:55.276Z,101437.34
2017-10-28T01:57:24.511Z,101431.31
2017-10-28T01:59:52.945Z,101420.55
2017-10-28T02:02:21.412Z,101421.38
2017-10-28T02:04:49.859Z,101414.09
2017-10-28T02:07:18.318Z,101412.33
2017-10-28T02:09:46.748Z,101408.88
2017-10-28T02:12:15.205Z,101404.97
2017-10-28T02:14:43.632Z,101399.77
2017-10-28T02:17:12.085Z,101398.94
2017-10-28T02:19:40.521Z,101395.89
2017-10-28T02:22:09.031Z,101385.13
2017-10-28T02:24:37.476Z,101378.66
2017-10-28T02:27:06.717Z,101378.66
2017-10-28T02:29:35.194Z,101376.04
2017-10-28T02:32:03.675Z,101374.70
2017-10-28T02:34:32.141Z,101370.83
2017-10-28T02:37:00.583Z,101369.54
2017-10-28T02:39:29.818Z,101372.59
2017-10-28T02:41:58.314Z,101360.92
2017-10-28T02:44:26.777Z,101357.05
2017-10-28T02:46:55.209Z,101349.73
2017-10-28T02:49:23.757Z,101341.94
2017-10-28T02:51:52.239Z,101332.94
2017-10-28T02:54:20.693Z,101332.95
2017-10-28T02:56:49.885Z,101323.11
2017-10-28T02:59:19.117Z,101318.48
2017-10-28T03:01:47.559Z,101311.20
2017-10-28T03:04:16.784Z,101313.41
2017-10-28T03:06:45.324Z,101315.14
2017-10-28T03:09:13.879Z,101316.91
2017-10-28T03:11:42.360Z,101309.13
2017-10-28T03:14:10.796Z,101306.49
2017-10-28T03:16:40.039Z,101296.15
2017-10-28T03:19:08.526Z,101282.38
2017-10-28T03:21:36.989Z,101284.09
2017-10-28T03:24:05.492Z,101276.69
2017-10-28T03:26:33.967Z,101275.81
2017-10-28T03:29:02.396Z,101276.19
2017-10-28T03:31:30.863Z,101270.96
2017-10-28T03:33:59.293Z,101258.48
2017-10-28T03:36:27.753Z,101255.91
2017-10-28T03:38:56.990Z,101272.70
2017-10-28T03:41:25.454Z,101258.22
2017-10-28T03:43:53.889Z,101257.78
2017-10-28T03:46:22.341Z,101258.61
2017-10-28T03:48:50.813Z,101252.19
2017-10-28T03:51:19.299Z,101246.61
2017-10-28T03:53:47.745Z,101240.64
2017-10-28T03:56:16.970Z,101238.01
2017-10-28T03:58:45.405Z,101234.14
2017-10-28T04:01:13.848Z,101231.62
2017-10-28T04:03:42.317Z,101214.47
2017-10-28T04:06:10.815Z,101206.34
2017-10-28T04:08:39.281Z,101200.87
2017-10-28T04:11:07.776Z,101194.89
2017-10-28T04:13:36.237Z,101184.20
2017-10-28T04:16:04.675Z,101190.21
2017-10-28T04:18:33.138Z,101174.78
2017-10-28T04:21:01.565Z,101179.02
2017-10-28T04:23:30.787Z,101167.84
2017-10-28T04:25:59.221Z,101157.03
2017-10-28T04:28:27.689Z,101153.97
2017-10-28T04:30:56.121Z,101149.61
2017-10-28T04:33:24.606Z,101147.89
2017-10-28T04:35:53.037Z,101141.00
2017-10-28T04:38:21.478Z,101133.69
2017-10-28T04:40:49.948Z,101128.91
2017-10-28T04:43:18.390Z,101140.47
2017-10-28T04:45:46.853Z,101133.20
2017-10-28T04:48:15.290Z,101134.06
2017-10-28T04:50:43.790Z,101113.47
2017-10-28T04:53:12.231Z,101093.25
2017-10-28T04:55:41.457Z,101103.09
2017-10-28T04:58:09.893Z,101097.55
2017-10-28T05:00:38.349Z,101105.31
2017-10-28T05:03:06.812Z,101104.81
2017-10-28T05:05:35.270Z,101096.75
2017-10-28T05:08:04.496Z,101089.49
2017-10-28T05:10:32.954Z,101079.56
2017-10-28T05:13:02.160Z,101087.73
2017-10-28T05:15:30.660Z,101079.93
2017-10-28T05:17:59.117Z,101079.84
2017-10-28T05:20:28.320Z,101080.30
2017-10-28T05:22:57.645Z,101081.58
2017-10-28T05:25:26.140Z,101071.58
2017-10-28T05:27:54.822Z,101062.59
2017-10-28T05:30:23.261Z,101040.22
2017-10-28T05:32:52.486Z,101032.96
2017-10-28T05:35:20.921Z,101040.70
2017-10-28T05:37:49.386Z,101041.99
2017-10-28T05:40:17.847Z,101045.89
2017-10-28T05:42:46.313Z,101042.92
2017-10-28T05:45:14.752Z,101034.81
2017-10-28T05:47:43.205Z,101033.70
2017-10-28T05:50:11.643Z,101027.39
2017-10-28T05:52:40.145Z,101040.34
2017-10-28T05:55:08.586Z,101038.36
2017-10-28T05:57:37.829Z,101033.65
2017-10-28T06:00:06.294Z,101004.46
2017-10-28T06:02:34.721Z,100994.62
2017-10-28T06:05:03.181Z,101006.23
2017-10-28T06:07:31.654Z,100994.19
2017-10-28T06:10:00.109Z,100984.73
2017-10-28T06:12:29.305Z,100961.95
2017-10-28T06:14:58.531Z,100959.30
2017-10-28T06:17:26.988Z,100959.19
2017-10-28T06:19:56.209Z,100965.53
2017-10-28T06:22:24.702Z,100961.70
2017-10-28T06:24:53.163Z,100958.70
2017-10-28T06:27:21.602Z,100960.41
2017-10-28T06:29:50.069Z,100940.20
2017-10-28T06:32:18.527Z,100944.06
2017-10-28T06:34:47.118Z,100957.78
2017-10-28T06:37:15.553Z,100952.62
2017-10-28T06:39:44.750Z,100934.61
2017-10-28T06:42:13.969Z,100947.45
2017-10-28T06:44:42.405Z,100942.29
2017-10-28T06:47:10.861Z,100928.47
2017-10-28T06:49:39.332Z,100930.61
2017-10-28T06:52:07.822Z,100925.88
2017-10-28T06:54:36.253Z,100917.64
2017-10-28T06:57:06.221Z,100915.95
2017-10-28T06:59:34.689Z,100932.72
2017-10-28T07:02:03.146Z,100929.20
2017-10-28T07:04:32.353Z,100924.45
2017-10-28T07:07:01.579Z,100924.39
2017-10-28T07:09:30.065Z,100929.92
2017-10-28T07:11:58.525Z,100923.84
2017-10-28T07:14:26.965Z,100905.77
2017-10-28T07:16:55.514Z,100905.33
2017-10-28T07:19:23.944Z,100891.86
2017-10-28T07:21:53.192Z,100888.80
2017-10-28T07:24:21.639Z,100879.73
2017-10-28T07:26:50.846Z,100873.70
2017-10-28T07:29:19.292Z,100871.96
2017-10-28T07:31:47.731Z,100866.72
2017-10-28T07:34:16.190Z,100869.73
2017-10-28T07:36:45.385Z,100859.28
2017-10-28T07:39:14.607Z,100852.83
2017-10-28T07:41:43.093Z,100838.88
2017-10-28T07:44:11.668Z,100831.56
2017-10-28T07:46:40.164Z,100828.50
2017-10-28T07:49:08.629Z,100808.17
2017-10-28T07:51:37.070Z,100811.55
2017-10-28T07:54:05.600Z,100803.31
2017-10-28T07:56:34.036Z,100796.39
2017-10-28T07:59:02.509Z,100793.61
2017-10-28T08:01:31.045Z,100780.53
2017-10-28T08:04:04.916Z,100783.36
2017-10-28T08:06:34.135Z,100788.52
2017-10-28T08:09:02.569Z,100779.89
2017-10-28T08:11:31.029Z,100776.81
2017-10-28T08:13:59.470Z,100759.08
2017-10-28T08:16:28.692Z,100749.11
2017-10-28T08:18:57.181Z,100735.77
2017-10-28T08:21:25.667Z,100732.67
2017-10-28T08:23:54.110Z,100739.44
2017-10-28T08:26:23.333Z,100716.09
2017-10-28T08:28:51.838Z,100711.55
2017-10-28T08:31:20.423Z,100708.88
2017-10-28T08:33:48.866Z,100706.09
2017-10-28T08:36:18.162Z,100720.12
2017-10-28T08:38:47.399Z,100701.27
2017-10-28T08:41:15.874Z,100698.35
2017-10-28T08:43:44.317Z,100683.36
2017-10-28T08:46:13.541Z,100693.53
2017-10-28T08:48:41.977Z,100691.72
2017-10-28T08:51:10.436Z,100686.00
2017-10-28T08:53:38.866Z,100682.59
2017-10-28T08:56:08.114Z,100658.86
2017-10-28T08:58:37.081Z,100648.00
2017-10-28T09:01:05.513Z,100651.95
2017-10-28T09:03:34.062Z,100643.17
2017-10-28T09:06:02.509Z,100638.96
2017-10-28T09:08:31.845Z,100638.50
2017-10-28T09:11:00.293Z,100645.03
2017-10-28T09:13:29.513Z,100645.61
2017-10-28T09:15:57.953Z,100624.13
2017-10-28T09:18:26.409Z,100596.03
2017-10-28T09:20:54.847Z,100606.33
2017-10-28T09:23:23.343Z,100610.19
2017-10-28T09:25:51.778Z,100614.52
2017-10-28T09:28:20.237Z,100620.54
2017-10-28T09:30:48.664Z,100612.55
2017-10-28T09:33:17.974Z,100605.02
2017-10-28T09:35:47.183Z,100599.21
2017-10-28T09:38:15.675Z,100601.69
2017-10-28T09:40:44.168Z,100584.97
2017-10-28T09:43:12.641Z,100589.20
2017-10-28T09:45:41.097Z,100594.69
2017-10-28T09:48:10.439Z,100587.25
2017-10-28T09:50:39.009Z,100582.08
2017-10-28T09:53:07.503Z,100573.28
2017-10-28T09:55:35.985Z,100570.67
2017-10-28T09:58:04.470Z,100564.61
2017-10-28T10:00:32.946Z,100544.28
2017-10-28T10:03:01.431Z,100551.06
2017-10-28T10:05:29.898Z,100545.91
2017-10-28T10:07:58.346Z,100550.73
2017-10-28T10:10:27.587Z,100542.22
2017-10-28T10:12:56.033Z,100539.59
2017-10-28T10:15:25.281Z,100528.80
2017-10-28T10:17:53.716Z,100520.81
2017-10-28T10:20:22.943Z,100518.25
2017-10-28T10:22:51.404Z,100510.92
2017-10-28T10:25:20.605Z,100504.97
2017-10-28T10:27:49.820Z,100524.64
2017-10-28T10:30:18.310Z,100518.56
2017-10-28T10:32:46.765Z,100500.50
2017-10-28T10:35:15.988Z,100494.08
2017-10-28T10:37:44.466Z,100493.66
2017-10-28T10:40:12.904Z,100487.95
2017-10-28T10:42:41.377Z,100482.83
2017-10-28T10:45:09.927Z,100488.98
2017-10-28T10:47:38.380Z,100479.52
2017-10-28T10:50:06.813Z,100484.03
2017-10-28T10:52:35.269Z,100481.47
2017-10-28T10:55:03.745Z,100470.77
2017-10-28T10:57:32.228Z,100460.31
2017-10-28T11:00:00.673Z,100460.84
2017-10-28T11:02:29.901Z,100460.00
2017-10-28T11:04:58.337Z,100457.50
2017-10-28T11:07:26.794Z,100453.16
2017-10-28T11:09:55.258Z,100445.73
2017-10-28T11:12:23.735Z,100448.16
2017-10-28T11:14:52.181Z,100438.74
2017-10-28T11:17:21.413Z,100432.67
2017-10-28T11:19:49.903Z,100429.19
2017-10-28T11:22:19.138Z,100419.63
2017-10-28T11:24:47.677Z,100405.50
2017-10-28T11:27:16.113Z,100411.20
2017-10-28T11:29:44.577Z,100395.09
2017-10-28T11:32:13.135Z,100398.50
2017-10-28T11:34:41.593Z,100395.33
2017-10-28T11:37:10.043Z,100397.56
2017-10-28T11:39:39.295Z,100389.24
2017-10-28T11:42:07.736Z,100386.42
2017-10-28T11:44:37.096Z,100379.30
2017-10-28T11:47:05.529Z,100371.03
2017-10-28T11:49:34.773Z,100360.30
2017-10-28T11:52:03.214Z,100354.52
2017-10-28T11:54:31.650Z,100347.40
2017-10-28T11:57:00.106Z,100337.27
2017-10-28T11:59:28.546Z,100332.28
2017-10-28T12:01:57.772Z,100334.41
2017-10-28T12:04:26.263Z,100326.26
2017-10-28T12:06:54.733Z,100316.62
2017-10-28T12:09:23.178Z,100308.64
2017-10-28T12:11:51.633Z,100303.67
2017-10-28T12:14:20.069Z,100304.61
2017-10-28T12:16:48.520Z,100297.05
2017-10-28T12:19:16.958Z,100293.09
2017-10-28T12:21:45.539Z,100300.05
2017-10-28T12:24:14.018Z,100293.00
2017-10-28T12:26:42.454Z,100283.25
2017-10-28T12:29:12.521Z,100270.51
2017-10-28T12:31:40.960Z,100272.66
2017-10-28T12:34:10.183Z,100267.52
2017-10-28T12:36:38.621Z,100265.67
2017-10-28T12:39:07.091Z,100254.67
2017-10-28T12:41:35.640Z,100249.59
2017-10-28T12:44:04.117Z,100243.14
2017-10-28T12:46:32.609Z,100239.31
2017-10-28T12:49:01.060Z,100233.05
2017-10-28T12:51:30.267Z,100232.89
2017-10-28T12:53:58.728Z,100242.88
2017-10-28T12:56:27.973Z,100243.56
2017-10-28T12:58:56.443Z,100231.08
2017-10-28T13:01:24.881Z,100237.30
2017-10-28T13:03:53.419Z,100230.19
2017-10-28T13:06:21.906Z,100231.14
2017-10-28T13:08:50.366Z,100230.08
2017-10-28T13:11:18.801Z,100221.55
2017-10-28T13:13:47.267Z,100212.86
2017-10-28T13:16:15.704Z,100216.66
2017-10-28T13:18:44.165Z,100213.25
2017-10-28T13:21:13.713Z,100233.75
2017-10-28T13:23:42.201Z,100206.87
2017-10-28T13:26:10.641Z,100195.65
2017-10-28T13:28:39.878Z,100195.47
2017-10-28T13:31:08.457Z,100195.78
2017-10-28T13:33:36.893Z,100191.90
2017-10-28T13:36:05.421Z,100193.30
2017-10-28T13:38:33.862Z,100199.51
2017-10-28T13:41:03.085Z,100197.57
2017-10-28T13:43:31.521Z,100190.95
2017-10-28T13:46:00.068Z,100185.91
2017-10-28T13:48:28.513Z,100180.69
2017-10-28T13:50:57.737Z,100170.54
2017-10-28T13:53:26.236Z,100175.16
2017-10-28T13:55:54.706Z,100176.94
2017-10-28T13:58:23.144Z,100169.41
2017-10-28T14:00:53.133Z,100179.40
2017-10-28T14:03:21.574Z,100172.50
2017-10-28T14:05:50.012Z,100169.19
2017-10-28T14:08:18.486Z,100164.49
2017-10-28T14:10:46.925Z,100169.11
2017-10-28T14:13:15.407Z,100176.81
2017-10-28T14:15:43.909Z,100172.80
2017-10-28T14:18:12.371Z,100182.22
2017-10-28T14:20:40.818Z,100183.78
2017-10-28T14:23:09.287Z,100183.43
2017-10-28T14:25:37.731Z,100184.45
2017-10-28T14:28:06.321Z,100187.00
2017-10-28T14:30:34.757Z,100185.70
2017-10-28T14:33:03.993Z,100191.84
2017-10-28T14:35:32.442Z,100185.80
2017-10-28T14:38:01.674Z,100185.05
2017-10-28T14:40:30.158Z,100174.62
2017-10-28T14:42:58.624Z,100174.94
2017-10-28T14:45:27.121Z,100179.08
2017-10-28T14:47:55.570Z,100177.46
2017-10-28T14:50:24.793Z,100181.06
2017-10-28T14:52:53.229Z,100169.54
2017-10-28T14:55:21.766Z,100161.60
2017-10-28T14:57:50.209Z,100159.73
2017-10-28T15:00:19.436Z,100163.84
2017-10-28T15:02:47.874Z,100161.28
2017-10-28T15:05:16.336Z,100164.84
2017-10-28T15:07:44.779Z,100161.48
2017-10-28T15:10:13.237Z,100156.81
2017-10-28T15:12:42.437Z,100153.06
2017-10-28T15:15:11.669Z,100151.08
2017-10-28T15:17:40.127Z,100149.27
2017-10-28T15:20:09.353Z,100138.39
2017-10-28T15:22:37.897Z,100131.16
2017-10-28T15:25:07.142Z,100141.75
2017-10-28T15:27:35.626Z,100138.73
2017-10-28T15:30:04.068Z,100132.06
2017-10-28T15:32:33.295Z,100133.41
2017-10-28T15:35:01.729Z,100127.79
2017-10-28T15:37:30.193Z,100124.74
2017-10-28T15:39:58.740Z,100117.48
2017-10-28T15:42:27.199Z,100120.70
2017-10-28T15:44:56.397Z,100116.78
2017-10-28T15:47:25.621Z,100109.78
2017-10-28T15:49:54.057Z,100100.77
2017-10-28T15:52:22.525Z,100101.98
2017-10-28T15:54:50.961Z,100093.72
2017-10-28T15:57:19.425Z,100094.66
2017-10-28T15:59:48.629Z,100084.26
2017-10-28T16:02:17.717Z,100085.44
2017-10-28T16:04:46.924Z,100088.36
2017-10-28T16:07:15.401Z,100097.73
2017-10-28T16:09:44.604Z,100091.41
2017-10-28T16:12:13.042Z,100091.81
2017-10-28T16:14:43.009Z,100086.25
2017-10-28T16:17:11.442Z,100080.63
2017-10-28T16:19:39.905Z,100081.31
2017-10-28T16:22:08.375Z,100071.05
2017-10-28T16:24:36.833Z,100068.05
2017-10-28T16:27:05.283Z,100070.28
2017-10-28T16:29:34.525Z,100065.06
2017-10-28T16:32:02.966Z,100059.53
2017-10-28T16:34:32.210Z,100052.39
2017-10-28T16:37:00.699Z,100043.80
2017-10-28T16:39:29.153Z,100048.21
2017-10-28T16:41:57.665Z,100043.53
2017-10-28T16:44:26.120Z,100042.22
2017-10-28T16:46:54.618Z,100035.02
2017-10-28T16:49:23.057Z,100029.77
2017-10-28T16:51:52.294Z,100021.21
2017-10-28T16:54:20.728Z,100038.34
2017-10-28T16:56:49.189Z,100027.07
2017-10-28T16:59:17.618Z,100009.84
2017-10-28T17:01:46.077Z,100011.88
2017-10-28T17:04:14.514Z,99996.90
2017-10-28T17:06:42.975Z,99994.31
2017-10-28T17:09:11.558Z,99986.98
2017-10-28T17:11:40.009Z,99985.62
2017-10-28T17:14:09.212Z,99980.75
2017-10-28T17:16:38.460Z,99975.16
2017-10-28T17:19:06.890Z,99974.17
2017-10-28T17:21:36.105Z,99971.96
2017-10-28T17:24:05.303Z,99960.70
2017-10-28T17:26:34.541Z,99961.08
2017-10-28T17:29:02.987Z,99958.05
2017-10-28T17:31:31.437Z,99953.25
2017-10-28T17:33:59.899Z,99950.64
2017-10-28T17:36:28.329Z,99949.52
2017-10-28T17:38:57.540Z,99947.91
2017-10-28T17:41:25.969Z,99935.33
2017-10-28T17:43:54.427Z,99932.75
2017-10-28T17:46:22.862Z,99916.91
2017-10-28T17:48:52.080Z,99920.06
2017-10-28T17:51:20.881Z,99916.21
2017-10-28T17:53:49.328Z,99911.47
2017-10-28T17:56:18.530Z,99912.33
2017-10-28T17:58:47.753Z,99910.49
2017-10-28T18:01:16.244Z,99912.20
2017-10-28T18:03:44.701Z,99891.53
2017-10-28T18:06:13.896Z,99887.89
2017-10-28T18:08:43.120Z,99887.30
2017-10-28T18:11:11.554Z,99892.62
2017-10-28T18:13:40.018Z,99888.00
2017-10-28T18:16:08.483Z,99876.40
2017-10-28T18:18:36.908Z,99870.81
2017-10-28T18:21:05.443Z,99870.54
2017-10-28T18:23:33.872Z,99863.31
2017-10-28T18:26:02.333Z,99854.23
2017-10-28T18:28:30.767Z,99842.97
2017-10-28T18:30:59.222Z,99841.31
2017-10-28T18:33:28.421Z,99832.92
2017-10-28T18:35:57.651Z,99830.42
2017-10-28T18:38:26.136Z,99832.08
2017-10-28T18:40:54.602Z,99822.09
2017-10-28T18:43:23.108Z,99806.96
2017-10-28T18:45:51.582Z,99808.63
2017-10-28T18:48:20.065Z,99797.55
2017-10-28T18:50:48.501Z,99787.61
2017-10-28T18:53:17.039Z,99792.59
2017-10-28T18:55:45.518Z,99778.63
2017-10-28T18:58:13.977Z,99769.66
2017-10-28T19:00:43.173Z,99765.34
2017-10-28T19:03:12.404Z,99746.50
2017-10-28T19:05:40.838Z,99747.50
2017-10-28T19:08:10.071Z,99729.84
2017-10-28T19:10:38.566Z,99716.45
2017-10-28T19:13:07.049Z,99702.24
2017-10-28T19:15:35.493Z,99697.89
2017-10-28T19:18:04.715Z,99689.53
2017-10-28T19:20:33.148Z,99677.43
2017-10-28T19:23:01.680Z,99677.73
2017-10-28T19:25:30.176Z,99674.14
2017-10-28T19:27:58.629Z,99672.80
2017-10-28T19:30:27.129Z,99666.25
2017-10-28T19:32:55.576Z,99668.44
2017-10-28T19:35:24.773Z,99670.20
2017-10-28T19:37:53.964Z,99656.09
2017-10-28T19:40:22.414Z,99662.94
2017-10-28T19:42:50.837Z,99656.56
2017-10-28T19:45:20.066Z,99658.67
2017-10-28T19:47:48.496Z,99642.33
2017-10-28T19:50:16.950Z,99634.09
2017-10-28T19:52:45.381Z,99633.98
2017-10-28T19:55:14.609Z,99619.35
2017-10-28T19:57:43.042Z,99609.30
2017-10-28T20:00:11.588Z,99601.82
2017-10-28T20:02:40.050Z,99601.67
2017-10-28T20:05:08.498Z,99595.19
2017-10-28T20:07:37.702Z,99586.30
2017-10-28T20:10:06.934Z,99583.63
2017-10-28T20:12:35.360Z,99570.20
2017-10-28T20:15:03.813Z,99554.63
2017-10-28T20:17:32.241Z,99555.27
2017-10-28T20:20:01.465Z,99551.33
2017-10-28T20:22:29.974Z,99543.91
2017-10-28T20:24:58.444Z,99534.44
2017-10-28T20:27:26.873Z,99530.47
2017-10-28T20:29:55.298Z,99520.16
2017-10-28T20:32:23.753Z,99522.75
2017-10-28T20:34:52.989Z,99517.79
2017-10-28T20:37:21.475Z,99508.80
2017-10-28T20:39:49.959Z,99506.37
2017-10-28T20:42:18.617Z,99495.77
2017-10-28T20:44:47.812Z,99481.25
2017-10-28T20:47:17.030Z,99478.13
2017-10-28T20:49:45.457Z,99480.05
2017-10-28T20:52:13.913Z,99463.73
2017-10-28T20:54:42.354Z,99461.57
2017-10-28T20:57:11.578Z,99447.91
2017-10-28T20:59:40.012Z,99438.47
2017-10-28T21:02:10.102Z,99427.69
2017-10-28T21:04:38.529Z,99403.71
2017-10-28T21:07:07.730Z,99398.57
2017-10-28T21:09:36.948Z,99389.11
2017-10-28T21:12:05.436Z,99381.03
2017-10-28T21:14:33.893Z,99373.19
2017-10-28T21:17:03.156Z,99365.73
2017-10-28T21:19:31.617Z,99355.91
2017-10-28T21:22:00.098Z,99357.50
2017-10-28T21:24:28.558Z,99361.25
2017-10-28T21:26:56.984Z,99345.74
2017-10-28T21:29:25.446Z,99345.20
2017-10-28T21:31:53.877Z,99331.25
2017-10-28T21:34:23.098Z,99319.97
2017-10-28T21:36:51.534Z,99318.66
2017-10-28T21:39:20.188Z,99297.81
2017-10-28T21:41:48.620Z,99295.14
2017-10-28T21:44:17.821Z,99292.06
2017-10-28T21:46:47.062Z,99285.05
2017-10-28T21:49:15.502Z,99270.71
2017-10-28T21:51:44.722Z,99264.12
2017-10-28T21:54:13.156Z,99257.98
2017-10-28T21:56:41.701Z,99251.52
2017-10-28T21:59:10.125Z,99239.72
2017-10-28T22:01:38.665Z,99230.67
2017-10-28T22:04:07.099Z,99226.52
2017-10-28T22:06:35.556Z,99221.74
2017-10-28T22:09:03.993Z,99203.68
2017-10-28T22:11:32.450Z,99199.67
2017-10-28T22:14:01.666Z,99178.73
2017-10-28T22:16:30.997Z,99185.75
2017-10-28T22:18:59.433Z,99166.82
2017-10-28T22:21:28.741Z,99153.27
2017-10-28T22:23:57.983Z,99147.23
2017-10-28T22:26:26.413Z,99143.91
2017-10-28T22:28:54.937Z,99127.11
2017-10-28T22:31:23.369Z,99116.28
2017-10-28T22:33:51.839Z,99111.66
2017-10-28T22:36:20.295Z,99101.67
2017-10-28T22:38:48.757Z,99095.31
2017-10-28T22:41:17.193Z,99096.19
2017-10-28T22:43:45.653Z,99081.87
2017-10-28T22:46:14.081Z,99077.44
2017-10-28T22:48:43.315Z,99063.08
2017-10-28T22:51:11.750Z,99049.88
2017-10-28T22:53:40.972Z,99053.67
2017-10-28T22:56:09.410Z,99043.27
2017-10-28T22:58:37.949Z,99025.80
2017-10-28T23:01:06.436Z,99001.83
2017-10-28T23:03:34.896Z,99002.15
2017-10-28T23:06:03.329Z,98991.81
2017-10-28T23:08:31.766Z,98980.09
2017-10-28T23:11:00.213Z,98965.12
2017-10-28T23:13:28.642Z,98956.41
2017-10-28T23:15:57.105Z,98937.80
2017-10-28T23:18:25.538Z,98934.34
2017-10-28T23:20:54.097Z,98920.04
2017-10-28T23:23:22.524Z,98909.59
2017-10-28T23:25:50.972Z,98903.27
2017-10-28T23:28:19.415Z,98887.27
2017-10-28T23:30:47.913Z,98875.14
2017-10-28T23:33:16.388Z,98868.50
2017-10-28T23:35:44.838Z,98852.48
2017-10-28T23:38:14.037Z,98841.16
2017-10-28T23:40:43.285Z,98826.67
2017-10-28T23:43:11.721Z,98828.72
2017-10-28T23:45:40.940Z,98811.84
2017-10-28T23:48:09.368Z,98792.68
2017-10-28T23:50:37.922Z,98782.79
2017-10-28T23:53:06.349Z,98767.27
2017-10-28T23:55:34.880Z,98767.23
2017-10-28T23:58:03.376Z,98753.01
